createdAt,value
2022-11-15T00:02:25.439Z,83.80
2022-11-15T00:05:12.069Z,83.70
2022-11-15T00:07:58.804Z,83.60
2022-11-15T00:10:56.815Z,84.40
2022-11-15T00:13:43.275Z,83.40
2022-11-15T00:16:29.937Z,83.90
2022-11-15T00:19:16.279Z,84.10
2022-11-15T00:22:02.821Z,84.40
2022-11-15T00:24:49.529Z,84.20
2022-11-15T00:27:36.213Z,84.10
2022-11-15T00:30:23.492Z,84.20
2022-11-15T00:33:11.114Z,84.40
2022-11-15T00:36:16.157Z,84.40
2022-11-15T00:39:05.839Z,84.10
2022-11-15T00:41:52.401Z,84.30
2022-11-15T00:44:38.986Z,84.60
2022-11-15T00:47:25.408Z,84.50
2022-11-15T00:50:15.217Z,84.50
2022-11-15T00:53:02.493Z,84.30
2022-11-15T00:55:48.814Z,84.10
2022-11-15T00:58:35.517Z,84.10
2022-11-15T01:01:22.461Z,83.90
2022-11-15T01:04:09.127Z,84.00
2022-11-15T01:06:55.819Z,83.50
2022-11-15T01:09:42.249Z,83.80
2022-11-15T01:12:28.672Z,84.20
2022-11-15T01:15:15.375Z,84.40
2022-11-15T01:18:02.279Z,84.30
2022-11-15T01:20:48.598Z,84.70
2022-11-15T01:23:35.448Z,85.30
2022-11-15T01:26:22.445Z,85.60
2022-11-15T01:29:08.908Z,85.60
2022-11-15T01:31:55.594Z,85.50
2022-11-15T01:34:42.032Z,85.80
2022-11-15T01:37:28.460Z,85.70
2022-11-15T01:40:16.604Z,85.50
2022-11-15T01:43:37.840Z,86.10
2022-11-15T01:46:36.989Z,85.80
2022-11-15T01:49:25.128Z,85.80
2022-11-15T01:52:18.391Z,85.70
2022-11-15T01:55:16.114Z,85.10
2022-11-15T01:58:05.696Z,85.20
2022-11-15T02:00:53.039Z,85.50
2022-11-15T02:04:00.180Z,84.80
2022-11-15T02:06:49.550Z,85.20
2022-11-15T02:09:38.583Z,85.00
2022-11-15T02:12:25.008Z,85.00
2022-11-15T02:15:12.652Z,84.70
2022-11-15T02:18:08.959Z,84.60
2022-11-15T02:21:14.715Z,84.50
2022-11-15T02:24:20.841Z,84.50
2022-11-15T02:27:30.566Z,84.50
2022-11-15T02:30:32.463Z,84.50
2022-11-15T02:33:56.585Z,84.30
2022-11-15T02:37:12.669Z,83.80
2022-11-15T02:40:53.849Z,84.40
2022-11-15T02:43:59.611Z,83.90
2022-11-15T02:47:10.445Z,84.50
2022-11-15T02:50:08.391Z,84.20
2022-11-15T02:52:55.320Z,84.90
2022-11-15T02:55:52.187Z,84.90
2022-11-15T02:59:28.906Z,85.00
2022-11-15T03:02:48.093Z,85.20
2022-11-15T03:06:15.338Z,85.30
2022-11-15T03:09:15.236Z,85.10
2022-11-15T03:12:38.638Z,85.90
2022-11-15T03:15:33.586Z,85.90
2022-11-15T03:18:45.001Z,85.80
2022-11-15T03:21:34.190Z,85.70
2022-11-15T03:24:25.988Z,85.70
2022-11-15T03:27:19.815Z,85.40
2022-11-15T03:30:10.078Z,85.10
2022-11-15T03:32:59.762Z,85.10
2022-11-15T03:35:48.485Z,85.10
2022-11-15T03:38:36.669Z,85.00
2022-11-15T03:41:50.169Z,84.70
2022-11-15T03:44:52.693Z,84.10
2022-11-15T03:48:00.887Z,83.80
2022-11-15T03:50:48.858Z,83.00
2022-11-15T03:53:35.431Z,83.40
2022-11-15T03:56:22.103Z,83.50
2022-11-15T03:59:08.921Z,83.00
2022-11-15T04:01:55.605Z,82.80
2022-11-15T04:04:42.515Z,82.60
2022-11-15T04:07:29.228Z,82.30
2022-11-15T04:10:16.717Z,81.40
2022-11-15T04:13:04.492Z,81.60
2022-11-15T04:15:50.922Z,81.60
2022-11-15T04:18:37.620Z,81.50
2022-11-15T04:21:42.770Z,81.80
2022-11-15T04:24:29.702Z,81.60
2022-11-15T04:27:16.162Z,81.70
2022-11-15T04:30:02.817Z,81.40
2022-11-15T04:32:49.270Z,82.30
2022-11-15T04:35:35.823Z,81.40
2022-11-15T04:38:22.640Z,81.20
2022-11-15T04:41:09.187Z,80.70
2022-11-15T04:43:56.230Z,80.90
2022-11-15T04:46:42.913Z,80.60
2022-11-15T04:49:29.598Z,80.10
2022-11-15T04:52:16.421Z,80.30
2022-11-15T04:55:07.908Z,80.00
2022-11-15T04:58:03.099Z,80.20
2022-11-15T05:00:49.712Z,80.20
2022-11-15T05:03:54.829Z,80.40
2022-11-15T05:06:41.619Z,80.70
2022-11-15T05:09:28.308Z,80.50
2022-11-15T05:12:15.099Z,80.50
2022-11-15T05:15:01.659Z,80.50
2022-11-15T05:17:48.709Z,80.80
2022-11-15T05:20:35.145Z,80.70
2022-11-15T05:23:21.966Z,80.70
2022-11-15T05:26:09.975Z,80.60
2022-11-15T05:28:59.068Z,80.30
2022-11-15T05:31:45.730Z,81.20
2022-11-15T05:34:32.899Z,80.10
2022-11-15T05:37:19.682Z,80.10
2022-11-15T05:40:07.336Z,80.10
2022-11-15T05:42:54.274Z,79.80
2022-11-15T05:45:40.837Z,79.90
2022-11-15T05:48:27.623Z,80.10
2022-11-15T05:51:18.037Z,80.00
2022-11-15T05:54:05.074Z,79.90
2022-11-15T05:56:52.129Z,79.80
2022-11-15T05:59:41.541Z,79.70
2022-11-15T06:02:28.285Z,79.70
2022-11-15T06:05:14.909Z,79.50
2022-11-15T06:08:01.843Z,79.70
2022-11-15T06:10:48.273Z,79.80
2022-11-15T06:13:35.811Z,79.70
2022-11-15T06:16:22.611Z,79.80
2022-11-15T06:19:09.402Z,79.70
2022-11-15T06:21:55.879Z,79.70
2022-11-15T06:24:42.168Z,79.60
2022-11-15T06:27:28.756Z,79.70
2022-11-15T06:30:15.805Z,80.90
2022-11-15T06:33:05.096Z,80.20
2022-11-15T06:35:51.315Z,80.30
2022-11-15T06:38:38.103Z,80.40
2022-11-15T06:41:24.805Z,80.60
2022-11-15T06:44:11.226Z,80.70
2022-11-15T06:46:58.055Z,81.10
2022-11-15T06:49:45.724Z,81.50
2022-11-15T06:52:33.825Z,81.70
2022-11-15T06:55:20.479Z,81.70
2022-11-15T06:58:07.060Z,81.80
2022-11-15T07:00:53.452Z,82.00
2022-11-15T07:03:43.644Z,82.10
2022-11-15T07:06:30.343Z,82.20
2022-11-15T07:09:16.770Z,82.30
2022-11-15T07:12:07.758Z,82.50
2022-11-15T07:14:54.456Z,82.80
2022-11-15T07:17:41.381Z,82.80
2022-11-15T07:20:27.825Z,82.80
2022-11-15T07:23:14.404Z,82.70
2022-11-15T07:26:01.323Z,82.60
2022-11-15T07:28:48.017Z,82.60
2022-11-15T07:31:34.454Z,82.40
2022-11-15T07:34:21.128Z,82.20
2022-11-15T07:37:07.694Z,81.80
2022-11-15T07:39:55.446Z,81.60
2022-11-15T07:42:55.328Z,81.20
2022-11-15T07:45:46.689Z,81.20
2022-11-15T07:48:43.555Z,81.00
2022-11-15T07:51:31.242Z,81.20
2022-11-15T07:54:17.895Z,80.90
2022-11-15T07:57:07.452Z,80.60
2022-11-15T07:59:54.867Z,80.60
2022-11-15T08:02:43.715Z,80.70
2022-11-15T08:05:30.387Z,80.70
2022-11-15T08:08:16.985Z,80.60
2022-11-15T08:11:04.137Z,80.10
2022-11-15T08:13:50.916Z,80.00
2022-11-15T08:16:37.497Z,79.90
2022-11-15T08:19:23.917Z,79.90
2022-11-15T08:22:10.502Z,79.80
2022-11-15T08:24:56.943Z,80.30
2022-11-15T08:27:43.384Z,80.40
2022-11-15T08:30:30.901Z,80.20
2022-11-15T08:33:17.711Z,80.10
2022-11-15T08:36:04.854Z,79.90
2022-11-15T08:38:51.061Z,79.80
2022-11-15T08:41:39.197Z,79.70
2022-11-15T08:44:25.765Z,79.30
2022-11-15T08:47:15.330Z,79.00
2022-11-15T08:50:02.348Z,78.90
2022-11-15T08:52:49.326Z,78.80
2022-11-15T08:55:39.194Z,78.50
2022-11-15T08:58:25.874Z,78.60
2022-11-15T09:01:21.297Z,78.60
2022-11-15T09:04:07.669Z,78.30
2022-11-15T09:06:54.514Z,78.50
2022-11-15T09:09:41.366Z,78.70
2022-11-15T09:12:28.065Z,78.70
2022-11-15T09:15:16.065Z,78.20
2022-11-15T09:18:02.516Z,77.80
2022-11-15T09:20:49.320Z,77.50
2022-11-15T09:23:35.860Z,76.90
2022-11-15T09:26:22.198Z,76.80
2022-11-15T09:29:08.865Z,76.80
2022-11-15T09:31:55.566Z,76.60
2022-11-15T09:34:42.234Z,76.10
2022-11-15T09:37:28.933Z,75.70
2022-11-15T09:40:18.606Z,75.40
2022-11-15T09:43:42.379Z,75.30
2022-11-15T09:46:51.865Z,73.80
2022-11-15T09:49:23.431Z,74.80
2022-11-15T09:52:14.903Z,74.30
2022-11-15T09:54:54.297Z,74.50
2022-11-15T09:57:33.263Z,73.70
2022-11-15T10:03:26.437Z,72.50
2022-11-15T10:06:02.794Z,72.60
2022-11-15T10:08:45.743Z,72.60
2022-11-15T10:11:42.491Z,72.30
2022-11-15T10:14:22.347Z,72.00
2022-11-15T10:17:20.803Z,71.70
2022-11-15T10:20:26.194Z,70.30
2022-11-15T10:23:12.304Z,70.80
2022-11-15T10:25:40.479Z,70.90
2022-11-15T10:28:18.654Z,72.20
2022-11-15T10:30:54.089Z,72.20
2022-11-15T10:33:40.491Z,71.90
2022-11-15T10:36:14.361Z,71.60
2022-11-15T10:38:51.420Z,72.00
2022-11-15T10:41:28.629Z,70.80
2022-11-15T10:44:11.577Z,72.40
2022-11-15T10:46:47.084Z,72.10
2022-11-15T10:49:35.967Z,72.60
2022-11-15T10:52:13.592Z,72.70
2022-11-15T10:54:52.871Z,72.20
2022-11-15T10:57:31.150Z,72.80
2022-11-15T11:00:05.835Z,73.20
2022-11-15T11:02:56.848Z,73.40
2022-11-15T11:05:42.989Z,73.70
2022-11-15T11:08:17.374Z,73.80
2022-11-15T11:11:03.964Z,74.20
2022-11-15T11:13:37.921Z,74.60
2022-11-15T11:16:14.848Z,74.80
2022-11-15T11:18:57.703Z,74.20
2022-11-15T11:21:40.351Z,74.70
2022-11-15T11:24:46.550Z,75.00
2022-11-15T11:27:52.918Z,75.40
2022-11-15T11:30:59.264Z,75.70
2022-11-15T11:33:38.865Z,75.80
2022-11-15T11:36:32.160Z,75.80
2022-11-15T11:39:23.270Z,75.80
2022-11-15T11:42:22.672Z,75.70
2022-11-15T11:45:13.215Z,75.80
2022-11-15T11:47:52.335Z,75.60
2022-11-15T11:50:28.585Z,75.10
2022-11-15T11:53:24.969Z,75.00
2022-11-15T11:56:03.381Z,74.50
2022-11-15T11:58:41.700Z,74.80
2022-11-15T12:01:26.532Z,74.50
2022-11-15T12:04:12.517Z,74.40
2022-11-15T12:06:51.089Z,74.60
2022-11-15T12:10:03.897Z,74.40
2022-11-15T12:12:44.542Z,73.70
2022-11-15T12:15:38.210Z,74.50
2022-11-15T12:18:10.228Z,74.30
2022-11-15T12:20:44.198Z,74.90
2022-11-15T12:23:24.756Z,74.90
2022-11-15T12:26:39.646Z,74.80
2022-11-15T12:29:39.052Z,74.70
2022-11-15T12:32:27.401Z,74.80
2022-11-15T12:34:57.063Z,75.30
2022-11-15T12:37:41.572Z,75.50
2022-11-15T12:40:29.089Z,75.50
2022-11-15T12:43:15.295Z,75.50
2022-11-15T12:45:47.117Z,75.60
2022-11-15T12:48:17.824Z,76.80
2022-11-15T12:50:59.585Z,75.80
2022-11-15T12:53:34.023Z,75.60
2022-11-15T12:56:14.002Z,76.00
2022-11-15T12:58:52.268Z,75.90
2022-11-15T13:01:36.322Z,75.80
2022-11-15T13:04:25.881Z,75.70
2022-11-15T13:06:53.813Z,75.90
2022-11-15T13:09:33.587Z,76.40
2022-11-15T13:12:35.629Z,76.10
2022-11-15T13:15:13.099Z,76.20
2022-11-15T13:17:53.726Z,75.80
2022-11-15T13:20:31.186Z,75.90
2022-11-15T13:23:04.172Z,75.90
2022-11-15T13:26:04.786Z,75.90
2022-11-15T13:28:45.232Z,75.80
2022-11-15T13:31:30.598Z,76.00
2022-11-15T13:34:07.343Z,75.70
2022-11-15T13:37:15.728Z,75.80
2022-11-15T13:39:44.148Z,75.70
2022-11-15T13:42:18.591Z,75.70
2022-11-15T13:44:58.705Z,75.60
2022-11-15T13:47:29.876Z,75.60
2022-11-15T13:50:09.661Z,75.70
2022-11-15T13:52:44.241Z,75.80
2022-11-15T13:55:20.304Z,75.70
2022-11-15T13:58:07.344Z,75.60
2022-11-15T14:00:45.499Z,75.70
2022-11-15T14:03:29.054Z,75.30
2022-11-15T14:06:16.471Z,75.20
2022-11-15T14:09:06.061Z,75.00
2022-11-15T14:11:34.120Z,75.20
2022-11-15T14:14:13.239Z,75.40
2022-11-15T14:16:47.908Z,75.10
2022-11-15T14:19:22.464Z,75.10
2022-11-15T14:22:29.910Z,75.00
2022-11-15T14:25:20.079Z,74.90
2022-11-15T14:28:16.472Z,74.90
2022-11-15T14:30:51.327Z,74.50
2022-11-15T14:33:35.095Z,74.80
2022-11-15T14:36:19.989Z,75.10
2022-11-15T14:38:49.005Z,74.60
2022-11-15T14:41:20.101Z,75.20
2022-11-15T14:43:48.648Z,75.20
2022-11-15T14:46:16.749Z,75.30
2022-11-15T14:48:44.826Z,75.40
2022-11-15T14:51:18.798Z,75.40
2022-11-15T14:53:48.421Z,75.40
2022-11-15T14:56:20.350Z,75.50
2022-11-15T14:58:48.446Z,75.30
2022-11-15T15:01:27.436Z,75.50
2022-11-15T15:03:58.167Z,75.50
2022-11-15T15:06:26.829Z,75.50
2022-11-15T15:08:54.911Z,75.70
2022-11-15T15:11:33.329Z,75.80
2022-11-15T15:14:02.363Z,75.80
2022-11-15T15:16:30.577Z,76.10
2022-11-15T15:18:58.644Z,77.20
2022-11-15T15:21:35.275Z,76.70
2022-11-15T15:24:05.503Z,76.70
2022-11-15T15:26:37.411Z,77.00
2022-11-15T15:29:05.508Z,77.20
2022-11-15T15:31:34.206Z,77.60
2022-11-15T15:34:02.750Z,77.80
2022-11-15T15:36:30.822Z,78.00
2022-11-15T15:38:58.926Z,78.10
2022-11-15T15:41:27.132Z,78.10
2022-11-15T15:43:55.427Z,78.20
2022-11-15T15:46:23.526Z,78.60
2022-11-15T15:48:51.590Z,78.80
2022-11-15T15:51:20.720Z,79.10
2022-11-15T15:53:49.577Z,79.30
2022-11-15T15:56:17.795Z,79.30
2022-11-15T15:58:45.844Z,79.10
2022-11-15T16:01:14.476Z,79.30
2022-11-15T16:03:42.608Z,79.30
2022-11-15T16:06:39.285Z,79.30
2022-11-15T16:09:17.829Z,79.10
2022-11-15T16:11:47.294Z,79.10
2022-11-15T16:14:15.393Z,79.00
2022-11-15T16:16:43.485Z,79.00
2022-11-15T16:19:12.980Z,78.90
2022-11-15T16:21:41.090Z,79.00
2022-11-15T16:24:09.172Z,79.20
2022-11-15T16:26:38.551Z,79.30
2022-11-15T16:29:08.087Z,79.40
2022-11-15T16:31:36.178Z,79.40
2022-11-15T16:34:04.238Z,79.50
2022-11-15T16:36:35.332Z,79.30
2022-11-15T16:39:05.273Z,78.90
2022-11-15T16:41:33.775Z,79.60
2022-11-15T16:44:01.862Z,78.50
2022-11-15T16:46:32.720Z,78.70
2022-11-15T16:49:00.918Z,78.60
2022-11-15T16:51:28.998Z,78.50
2022-11-15T16:53:57.193Z,78.40
2022-11-15T16:56:27.082Z,78.50
2022-11-15T16:59:00.303Z,78.60
2022-11-15T17:01:38.702Z,78.60
2022-11-15T17:04:13.124Z,78.50
2022-11-15T17:06:44.589Z,78.10
2022-11-15T17:09:25.537Z,78.00
2022-11-15T17:11:54.433Z,78.00
2022-11-15T17:14:23.022Z,78.10
2022-11-15T17:16:51.103Z,78.00
2022-11-15T17:19:21.578Z,78.10
2022-11-15T17:21:49.792Z,78.00
2022-11-15T17:24:21.233Z,78.00
2022-11-15T17:26:49.409Z,78.10
2022-11-15T17:29:18.696Z,78.10
2022-11-15T17:31:46.791Z,78.00
2022-11-15T17:34:14.854Z,77.90
2022-11-15T17:36:42.962Z,77.90
2022-11-15T17:39:11.017Z,78.10
2022-11-15T17:41:39.115Z,77.80
2022-11-15T17:44:07.184Z,77.70
2022-11-15T17:46:36.951Z,77.70
2022-11-15T17:49:05.149Z,77.70
2022-11-15T17:51:33.723Z,77.60
2022-11-15T17:54:01.914Z,77.70
2022-11-15T17:56:33.135Z,77.80
2022-11-15T17:59:01.454Z,77.80
2022-11-15T18:01:32.590Z,77.80
2022-11-15T18:04:03.850Z,78.00
2022-11-15T18:06:34.804Z,77.80
2022-11-15T18:09:04.811Z,77.80
2022-11-15T18:11:34.478Z,77.70
2022-11-15T18:14:07.334Z,78.50
2022-11-15T18:16:37.946Z,77.50
2022-11-15T18:19:11.539Z,77.50
2022-11-15T18:21:57.458Z,77.80
2022-11-15T18:24:38.597Z,77.60
2022-11-15T18:27:07.464Z,77.60
2022-11-15T18:29:38.108Z,77.70
2022-11-15T18:32:11.841Z,77.60
2022-11-15T18:34:40.126Z,77.80
2022-11-15T18:37:08.194Z,77.60
2022-11-15T18:39:36.422Z,78.10
2022-11-15T18:42:04.960Z,78.00
2022-11-15T18:44:33.060Z,78.10
2022-11-15T18:47:01.126Z,78.50
2022-11-15T18:49:29.234Z,79.20
2022-11-15T18:51:57.318Z,79.20
2022-11-15T18:54:30.604Z,78.80
2022-11-15T18:57:00.054Z,78.80
2022-11-15T18:59:29.216Z,78.70
2022-11-15T19:01:57.422Z,78.70
2022-11-15T19:04:25.526Z,78.90
2022-11-15T19:06:54.135Z,78.90
2022-11-15T19:09:22.299Z,79.00
2022-11-15T19:11:51.759Z,79.20
2022-11-15T19:14:26.359Z,79.70
2022-11-15T19:16:55.136Z,80.10
2022-11-15T19:19:30.459Z,80.00
2022-11-15T19:21:58.878Z,79.90
2022-11-15T19:24:27.610Z,79.60
2022-11-15T19:26:55.668Z,79.70
2022-11-15T19:29:23.754Z,79.80
2022-11-15T19:31:51.806Z,79.70
2022-11-15T19:34:19.892Z,79.80
2022-11-15T19:36:48.226Z,79.90
2022-11-15T19:39:18.182Z,79.90
2022-11-15T19:41:47.044Z,80.20
2022-11-15T19:44:15.264Z,80.40
2022-11-15T19:46:44.475Z,80.60
2022-11-15T19:49:12.599Z,80.80
2022-11-15T19:51:42.811Z,81.10
2022-11-15T19:54:11.269Z,81.20
2022-11-15T19:56:42.143Z,81.30
2022-11-15T19:59:12.029Z,81.50
2022-11-15T20:01:40.413Z,81.60
2022-11-15T20:04:10.245Z,81.60
2022-11-15T20:06:42.037Z,81.70
2022-11-15T20:09:15.636Z,81.60
2022-11-15T20:11:43.944Z,81.30
2022-11-15T20:14:13.305Z,80.90
2022-11-15T20:16:41.787Z,80.90
2022-11-15T20:19:09.973Z,80.80
2022-11-15T20:21:38.319Z,81.00
2022-11-15T20:24:07.474Z,81.20
2022-11-15T20:26:35.899Z,81.60
2022-11-15T20:29:04.103Z,82.00
2022-11-15T20:31:33.043Z,82.30
2022-11-15T20:34:01.228Z,82.30
2022-11-15T20:36:29.793Z,82.40
2022-11-15T20:39:01.246Z,82.80
2022-11-15T20:41:29.338Z,84.50
2022-11-15T20:43:58.381Z,84.10
2022-11-15T20:46:26.576Z,84.60
2022-11-15T20:48:54.658Z,84.70
2022-11-15T20:51:22.743Z,85.70
2022-11-15T20:53:51.048Z,84.70
2022-11-15T20:56:21.528Z,84.70
2022-11-15T20:58:50.883Z,84.50
2022-11-15T21:01:25.136Z,84.40
2022-11-15T21:03:56.827Z,84.50
2022-11-15T21:06:26.699Z,84.40
2022-11-15T21:09:14.354Z,84.40
2022-11-15T21:12:01.265Z,84.40
2022-11-15T21:14:29.369Z,84.70
2022-11-15T21:16:57.567Z,84.60
2022-11-15T21:19:30.138Z,84.50
2022-11-15T21:22:01.635Z,84.50
2022-11-15T21:24:29.982Z,84.70
2022-11-15T21:26:58.656Z,84.90
2022-11-15T21:29:26.986Z,84.70
2022-11-15T21:31:55.284Z,84.60
2022-11-15T21:34:23.486Z,84.60
2022-11-15T21:36:51.470Z,84.80
2022-11-15T21:39:19.891Z,85.30
2022-11-15T21:41:48.707Z,86.10
2022-11-15T21:44:16.903Z,87.00
2022-11-15T21:46:45.005Z,87.40
2022-11-15T21:49:13.179Z,87.60
2022-11-15T21:51:41.623Z,87.50
2022-11-15T21:54:10.065Z,87.50
2022-11-15T21:56:38.157Z,87.30
2022-11-15T21:59:06.233Z,87.40
2022-11-15T22:01:52.697Z,88.20
2022-11-15T22:04:21.715Z,88.90
2022-11-15T22:06:50.705Z,89.80
2022-11-15T22:09:18.842Z,90.60
2022-11-15T22:11:47.041Z,91.30
2022-11-15T22:14:15.123Z,91.60
2022-11-15T22:16:43.358Z,91.50
2022-11-15T22:19:11.409Z,91.20
2022-11-15T22:21:40.829Z,91.10
2022-11-15T22:24:09.256Z,91.00
2022-11-15T22:26:37.459Z,90.90
2022-11-15T22:29:05.559Z,91.20
2022-11-15T22:31:33.637Z,91.30
2022-11-15T22:34:01.704Z,92.10
2022-11-15T22:36:47.021Z,92.30
2022-11-15T22:39:18.510Z,92.90
2022-11-15T22:41:46.727Z,93.70
2022-11-15T22:44:14.810Z,93.80
2022-11-15T22:46:42.909Z,94.50
2022-11-15T22:49:11.079Z,95.40
2022-11-15T22:51:40.721Z,95.90
2022-11-15T22:54:08.837Z,96.30
2022-11-15T22:56:36.903Z,96.80
2022-11-15T22:59:05.087Z,97.60
2022-11-15T23:01:34.730Z,97.80
2022-11-15T23:04:02.967Z,98.00
2022-11-15T23:06:31.267Z,98.50
2022-11-15T23:08:59.462Z,99.30
2022-11-15T23:11:45.794Z,99.40
2022-11-15T23:14:13.864Z,97.80
2022-11-15T23:16:42.064Z,97.40
2022-11-15T23:19:12.446Z,97.10
2022-11-15T23:22:04.764Z,97.30
2022-11-15T23:24:33.809Z,97.10
2022-11-15T23:27:06.440Z,96.90
2022-11-15T23:29:56.380Z,97.20
2022-11-15T23:32:43.306Z,97.60
2022-11-15T23:35:11.485Z,97.90
2022-11-15T23:37:39.710Z,98.70
2022-11-15T23:40:09.707Z,99.50
2022-11-15T23:42:37.890Z,99.70
2022-11-15T23:45:07.196Z,99.90
2022-11-15T23:47:35.254Z,99.90
2022-11-15T23:50:04.193Z,99.90
2022-11-15T23:52:32.506Z,99.90
2022-11-15T23:55:00.721Z,99.90
2022-11-15T23:57:28.786Z,99.90
2022-11-15T23:59:59.319Z,99.90
